TimePDT,TemperatureF,Dew PointF,Humidity,Sea Level PressureIn,VisibilityMPH,Wind Direction,Wind SpeedMPH,Gust SpeedMPH,PrecipitationIn,Events,Conditions,WindDirDegrees,DateUTC
12:53 AM,46.0,45.0,96,30.00,10.0,North,-9999.0,-,N/A,,Mostly Cloudy,0,2012-10-23 07:53:00
1:53 AM,46.9,46.0,97,29.99,10.0,North,-9999.0,-,N/A,,Mostly Cloudy,0,2012-10-23 08:53:00
2:53 AM,46.0,46.0,100,29.99,10.0,North,-9999.0,-,0.01,,Scattered Clouds,0,2012-10-23 09:53:00
3:53 AM,44.1,43.0,96,29.99,10.0,North,-9999.0,-,N/A,,Scattered Clouds,0,2012-10-23 10:53:00
4:53 AM,46.0,45.0,96,30.01,10.0,North,-9999.0,-,N/A,,Mostly Cloudy,0,2012-10-23 11:53:00
5:53 AM,46.9,45.0,93,30.02,10.0,North,-9999.0,-,N/A,,Clear,0,2012-10-23 12:53:00
6:53 AM,46.9,45.0,93,30.03,10.0,North,-9999.0,-,N/A,,Overcast,0,2012-10-23 13:53:00
7:53 AM,46.9,45.0,93,30.04,10.0,North,-9999.0,-,N/A,,Clear,0,2012-10-23 14:53:00
8:53 AM,53.1,46.9,80,30.05,10.0,Calm,Calm,-,N/A,,Partly Cloudy,0,2012-10-23 15:53:00
10:53 AM,59.0,48.9,69,30.06,10.0,North,5.8,-,N/A,,Clear,350,2012-10-23 17:53:00
11:53 AM,62.1,46.0,56,30.06,10.0,North,6.9,-,N/A,,Scattered Clouds,360,2012-10-23 18:53:00
12:53 PM,62.1,43.0,50,30.04,10.0,Variable,3.5,-,N/A,,Overcast,0,2012-10-23 19:53:00
1:53 PM,63.0,43.0,48,30.01,10.0,Variable,4.6,-,N/A,,Mostly Cloudy,0,2012-10-23 20:53:00
2:53 PM,64.0,42.1,45,30.00,10.0,WNW,5.8,-,N/A,,Clear,290,2012-10-23 21:53:00
3:53 PM,64.0,42.1,45,30.01,10.0,WNW,9.2,-,N/A,,Clear,300,2012-10-23 22:53:00
4:53 PM,64.0,39.9,41,29.98,10.0,NNW,8.1,-,N/A,,Clear,330,2012-10-23 23:53:00
5:53 PM,61.0,41.0,48,29.98,10.0,WNW,4.6,-,N/A,,Clear,290,2012-10-24 00:53:00
6:53 PM,55.9,42.1,60,29.99,10.0,WNW,5.8,-,N/A,,Clear,300,2012-10-24 01:53:00
7:53 PM,53.1,43.0,69,29.99,10.0,NW,6.9,-,N/A,,Clear,310,2012-10-24 02:53:00
8:53 PM,51.1,43.0,74,30.00,10.0,NW,5.8,-,N/A,,Clear,320,2012-10-24 03:53:00
9:53 PM,50.0,42.1,74,30.02,10.0,NNW,4.6,-,N/A,,Clear,330,2012-10-24 04:53:00
10:53 PM,46.9,41.0,80,30.02,10.0,SW,5.8,-,N/A,,Clear,230,2012-10-24 05:53:00
11:53 PM,46.0,42.1,86,30.04,10.0,WNW,5.8,-,N/A,,Clear,300,2012-10-24 06:53:00